createdAt,value
2022-11-25T00:00:44.565Z,98358.72
2022-11-25T00:01:45.992Z,98363.75
2022-11-25T00:02:47.485Z,98358.25
2022-11-25T00:03:49.411Z,98354.88
2022-11-25T00:04:50.871Z,98354.91
2022-11-25T00:05:52.255Z,98350.22
2022-11-25T00:06:53.661Z,98352.28
2022-11-25T00:07:55.075Z,98353.09
2022-11-25T00:08:57.656Z,98346.56
2022-11-25T00:09:59.035Z,98343.38
2022-11-25T00:11:00.913Z,98346.84
2022-11-25T00:12:02.356Z,98341.84
2022-11-25T00:13:03.774Z,98338.97
2022-11-25T00:14:05.768Z,98340.53
2022-11-25T00:15:07.256Z,98342.88
2022-11-25T00:16:10.049Z,98347.34
2022-11-25T00:17:11.470Z,98346.06
2022-11-25T00:18:12.900Z,98344.22
2022-11-25T00:19:14.301Z,98342.41
2022-11-25T00:20:15.718Z,98341.34
2022-11-25T00:21:21.290Z,98349.72
2022-11-25T00:22:22.882Z,98345.28
2022-11-25T00:23:26.058Z,98349.50
2022-11-25T00:24:30.571Z,98347.38
2022-11-25T00:25:31.933Z,98347.13
2022-11-25T00:26:34.222Z,98348.97
2022-11-25T00:27:38.513Z,98348.44
2022-11-25T00:28:40.491Z,98347.66
2022-11-25T00:29:43.586Z,98343.97
2022-11-25T00:30:44.957Z,98333.22
2022-11-25T00:31:46.469Z,98340.59
2022-11-25T00:32:47.830Z,98344.25
2022-11-25T00:33:50.103Z,98349.75
2022-11-25T00:34:51.440Z,98349.22
2022-11-25T00:35:52.770Z,98346.88
2022-11-25T00:36:54.120Z,98350.50
2022-11-25T00:37:56.157Z,98351.81
2022-11-25T00:38:58.944Z,98348.63
2022-11-25T00:40:00.536Z,98350.72
2022-11-25T00:41:01.917Z,98348.06
2022-11-25T00:42:03.368Z,98345.16
2022-11-25T00:43:04.756Z,98352.19
2022-11-25T00:44:06.576Z,98349.03
2022-11-25T00:45:08.206Z,98347.94
2022-11-25T00:46:09.802Z,98341.66
2022-11-25T00:47:15.735Z,98343.50
2022-11-25T00:48:17.096Z,98341.66
2022-11-25T00:49:18.552Z,98345.84
2022-11-25T00:50:20.688Z,98341.41
2022-11-25T00:51:22.045Z,98338.28
2022-11-25T00:52:27.115Z,98334.59
2022-11-25T00:53:30.483Z,98337.25
2022-11-25T00:54:32.095Z,98336.50
2022-11-25T00:55:33.423Z,98335.47
2022-11-25T00:56:34.842Z,98337.03
2022-11-25T00:57:36.224Z,98348.34
2022-11-25T00:58:37.655Z,98345.72
2022-11-25T00:59:39.049Z,98345.72
2022-11-25T01:00:40.418Z,98349.69
2022-11-25T01:01:41.808Z,98350.75
2022-11-25T01:02:43.261Z,98349.19
2022-11-25T01:03:50.728Z,98346.56
2022-11-25T01:04:52.099Z,98347.63
2022-11-25T01:05:53.417Z,98347.09
2022-11-25T01:06:54.883Z,98351.56
2022-11-25T01:07:57.493Z,98349.50
2022-11-25T01:08:58.871Z,98340.06
2022-11-25T01:10:00.228Z,98339.53
2022-11-25T01:11:02.795Z,98348.19
2022-11-25T01:12:04.911Z,98342.97
2022-11-25T01:13:06.327Z,98352.16
2022-11-25T01:14:08.017Z,98352.16
2022-11-25T01:15:09.623Z,98353.19
2022-11-25T01:16:12.384Z,98351.38
2022-11-25T01:17:13.784Z,98352.44
2022-11-25T01:18:15.167Z,98359.47
2022-11-25T01:19:17.257Z,98361.59
2022-11-25T01:20:18.590Z,98351.91
2022-11-25T01:21:19.916Z,98353.47
2022-11-25T01:22:21.321Z,98349.56
2022-11-25T01:23:22.709Z,98351.91
2022-11-25T01:24:24.333Z,98348.00
2022-11-25T01:25:28.228Z,98342.22
2022-11-25T01:26:30.513Z,98346.94
2022-11-25T01:27:31.831Z,98344.34
2022-11-25T01:28:33.201Z,98343.81
2022-11-25T01:29:34.607Z,98346.19
2022-11-25T01:30:40.998Z,98333.84
2022-11-25T01:31:42.939Z,98343.28
2022-11-25T01:32:44.321Z,98341.72
2022-11-25T01:33:46.829Z,98335.69
2022-11-25T01:34:50.477Z,98337.81
2022-11-25T01:35:51.921Z,98342.78
2022-11-25T01:36:53.311Z,98344.63
2022-11-25T01:37:54.704Z,98345.66
2022-11-25T01:38:59.525Z,98347.75
2022-11-25T01:40:00.866Z,98351.69
2022-11-25T01:41:03.114Z,98351.16
2022-11-25T01:42:04.937Z,98348.03
2022-11-25T01:43:06.308Z,98345.13
2022-11-25T01:44:18.495Z,98346.69
2022-11-25T01:45:19.997Z,98348.28
2022-11-25T01:46:25.843Z,98351.44
2022-11-25T01:47:27.553Z,98350.13
2022-11-25T01:48:32.816Z,98347.75
2022-11-25T01:49:37.129Z,98343.28
2022-11-25T01:50:38.943Z,98348.03
2022-11-25T01:51:41.721Z,98359.03
2022-11-25T01:52:45.878Z,98356.94
2022-11-25T01:53:48.336Z,98356.41
2022-11-25T01:54:56.891Z,98359.84
2022-11-25T01:56:00.394Z,98357.47
2022-11-25T01:57:05.692Z,98360.63
2022-11-25T01:58:11.729Z,98359.03
2022-11-25T01:59:13.903Z,98352.75
2022-11-25T02:00:15.916Z,98354.59
2022-11-25T02:01:20.036Z,98354.06
2022-11-25T02:02:21.942Z,98346.69
2022-11-25T02:03:25.745Z,98349.88
2022-11-25T02:04:31.407Z,98343.06
2022-11-25T02:05:38.455Z,98346.69
2022-11-25T02:06:41.909Z,98350.38
2022-11-25T02:07:45.053Z,98353.53
2022-11-25T02:08:51.774Z,98356.16
2022-11-25T02:09:53.957Z,98366.13
2022-11-25T02:10:55.743Z,98364.03
2022-11-25T02:11:57.562Z,98367.44
2022-11-25T02:12:59.452Z,98366.09
2022-11-25T02:14:02.433Z,98354.06
2022-11-25T02:15:04.447Z,98360.34
2022-11-25T02:16:05.853Z,98355.38
2022-11-25T02:17:07.281Z,98350.13
2022-11-25T02:18:08.664Z,98349.31
2022-11-25T02:19:16.086Z,98354.31
2022-11-25T02:20:19.891Z,98359.28
2022-11-25T02:21:26.311Z,98355.09
2022-11-25T02:22:39.330Z,98360.34
2022-11-25T02:23:43.841Z,98362.44
2022-11-25T02:24:46.608Z,98364.53
2022-11-25T02:25:50.348Z,98359.81
2022-11-25T02:26:52.320Z,98357.44
2022-11-25T02:28:07.414Z,98359.03
2022-11-25T02:29:11.889Z,98349.84
2022-11-25T02:30:13.525Z,98349.06
2022-11-25T02:31:19.546Z,98343.56
2022-11-25T02:32:21.823Z,98346.97
2022-11-25T02:33:23.563Z,98344.06
2022-11-25T02:34:24.959Z,98346.19
2022-11-25T02:35:28.424Z,98348.03
2022-11-25T02:36:29.867Z,98350.63
2022-11-25T02:37:31.417Z,98356.66
2022-11-25T02:38:41.201Z,98353.25
2022-11-25T02:39:44.770Z,98362.69
2022-11-25T02:40:53.451Z,98358.50
2022-11-25T02:41:56.964Z,98357.44
2022-11-25T02:42:59.652Z,98351.94
2022-11-25T02:44:01.432Z,98354.03
2022-11-25T02:45:02.991Z,98350.38
2022-11-25T02:46:04.526Z,98347.75
2022-11-25T02:47:06.032Z,98356.66
2022-11-25T02:48:07.517Z,98357.72
2022-11-25T02:49:10.205Z,98356.94
2022-11-25T02:50:12.666Z,98363.75
2022-11-25T02:51:15.652Z,98360.84
2022-11-25T02:52:17.061Z,98359.03
2022-11-25T02:53:19.223Z,98355.88
2022-11-25T02:54:20.659Z,98357.72
2022-11-25T02:55:22.080Z,98354.03
2022-11-25T02:56:24.491Z,98356.16
2022-11-25T02:57:25.935Z,98353.53
2022-11-25T02:58:27.779Z,98344.59
2022-11-25T02:59:29.168Z,98345.13
2022-11-25T03:00:30.585Z,98341.44
2022-11-25T03:01:32.944Z,98342.22
2022-11-25T03:02:34.551Z,98343.53
2022-11-25T03:03:36.805Z,98345.63
2022-11-25T03:04:40.988Z,98342.75
2022-11-25T03:05:42.425Z,98343.81
2022-11-25T03:06:43.801Z,98333.81
2022-11-25T03:07:45.245Z,98338.53
2022-11-25T03:08:46.674Z,98338.78
2022-11-25T03:09:48.114Z,98340.91
2022-11-25T03:10:49.744Z,98336.69
2022-11-25T03:11:51.444Z,98336.16
2022-11-25T03:12:54.761Z,98336.16
2022-11-25T03:13:57.272Z,98331.69
2022-11-25T03:14:59.797Z,98334.31
2022-11-25T03:16:02.911Z,98333.28
2022-11-25T03:17:04.333Z,98335.91
2022-11-25T03:18:06.265Z,98330.66
2022-11-25T03:19:07.665Z,98328.84
2022-11-25T03:20:10.298Z,98331.97
2022-11-25T03:21:11.659Z,98328.84
2022-11-25T03:22:13.079Z,98333.03
2022-11-25T03:23:14.400Z,98328.59
2022-11-25T03:24:15.880Z,98329.38
2022-11-25T03:25:17.698Z,98325.19
2022-11-25T03:26:19.059Z,98333.06
2022-11-25T03:27:20.515Z,98330.69
2022-11-25T03:28:22.024Z,98330.69
2022-11-25T03:29:23.908Z,98324.13
2022-11-25T03:30:26.889Z,98325.44
2022-11-25T03:31:31.781Z,98318.09
2022-11-25T03:32:33.256Z,98322.78
2022-11-25T03:33:34.599Z,98315.75
2022-11-25T03:34:36.199Z,98313.88
2022-11-25T03:35:38.073Z,98314.91
2022-11-25T03:36:39.500Z,98316.75
2022-11-25T03:37:42.462Z,98317.00
2022-11-25T03:38:43.887Z,98311.47
2022-11-25T03:39:47.154Z,98313.81
2022-11-25T03:40:48.590Z,98312.50
2022-11-25T03:41:51.020Z,98322.97
2022-11-25T03:42:53.960Z,98316.19
2022-11-25T03:43:55.332Z,98319.84
2022-11-25T03:44:58.276Z,98322.44
2022-11-25T03:45:59.773Z,98326.13
2022-11-25T03:47:02.089Z,98325.59
2022-11-25T03:48:04.166Z,98324.81
2022-11-25T03:49:05.570Z,98323.00
2022-11-25T03:50:07.868Z,98315.13
2022-11-25T03:51:09.258Z,98325.63
2022-11-25T03:52:10.663Z,98318.56
2022-11-25T03:53:12.141Z,98305.97
2022-11-25T03:54:13.813Z,98316.22
2022-11-25T03:55:33.609Z,98310.72
2022-11-25T03:56:35.212Z,98307.88
2022-11-25T03:57:36.635Z,98312.06
2022-11-25T03:58:38.145Z,98308.13
2022-11-25T03:59:40.800Z,98315.75
2022-11-25T04:00:42.402Z,98315.47
2022-11-25T04:01:44.556Z,98316.78
2022-11-25T04:02:46.324Z,98317.06
2022-11-25T04:03:49.578Z,98322.06
2022-11-25T04:04:50.979Z,98323.09
2022-11-25T04:05:52.960Z,98320.22
2022-11-25T04:06:54.899Z,98320.75
2022-11-25T04:07:58.222Z,98313.94
2022-11-25T04:09:00.583Z,98319.16
2022-11-25T04:10:01.977Z,98318.63
2022-11-25T04:11:06.448Z,98320.75
2022-11-25T04:12:12.863Z,98320.75
2022-11-25T04:13:23.780Z,98323.38
2022-11-25T04:14:26.521Z,98319.44
2022-11-25T04:15:28.006Z,98321.78
2022-11-25T04:16:32.196Z,98318.91
2022-11-25T04:17:34.186Z,98319.69
2022-11-25T04:18:35.670Z,98313.16
2022-11-25T04:19:37.339Z,98316.03
2022-11-25T04:20:38.955Z,98308.13
2022-11-25T04:21:42.217Z,98305.00
2022-11-25T04:22:44.752Z,98311.03
2022-11-25T04:23:46.574Z,98305.78
2022-11-25T04:24:49.043Z,98307.13
2022-11-25T04:25:55.814Z,98305.28
2022-11-25T04:27:03.066Z,98306.84
2022-11-25T04:28:05.572Z,98302.66
2022-11-25T04:29:08.536Z,98305.78
2022-11-25T04:30:10.416Z,98303.94
2022-11-25T04:31:14.338Z,98298.97
2022-11-25T04:32:17.665Z,98302.13
2022-11-25T04:33:19.453Z,98303.44
2022-11-25T04:34:22.627Z,98300.28
2022-11-25T04:35:26.296Z,98307.34
2022-11-25T04:36:29.256Z,98309.97
2022-11-25T04:37:30.643Z,98309.19
2022-11-25T04:38:32.737Z,98310.53
2022-11-25T04:39:34.169Z,98312.34
2022-11-25T04:40:43.063Z,98308.41
2022-11-25T04:41:49.233Z,98304.50
2022-11-25T04:42:50.611Z,98297.69
2022-11-25T04:43:55.010Z,98301.59
2022-11-25T04:45:21.331Z,98303.44
2022-11-25T04:46:24.307Z,98292.16
2022-11-25T04:47:26.135Z,98296.09
2022-11-25T04:48:27.710Z,98285.59
2022-11-25T04:49:29.323Z,98298.19
2022-11-25T04:50:30.780Z,98295.84
2022-11-25T04:51:38.674Z,98292.69
2022-11-25T04:52:41.543Z,98296.34
2022-11-25T04:53:42.924Z,98300.03
2022-11-25T04:54:45.963Z,98292.69
2022-11-25T04:55:47.740Z,98295.56
2022-11-25T04:56:50.158Z,98299.53
2022-11-25T04:57:52.801Z,98297.41
2022-11-25T04:58:54.569Z,98301.88
2022-11-25T04:59:56.192Z,98302.13
2022-11-25T05:00:58.358Z,98295.31
2022-11-25T05:01:59.794Z,98302.94
2022-11-25T05:03:10.024Z,98305.78
2022-11-25T05:04:13.264Z,98305.78
2022-11-25T05:05:14.714Z,98310.53
2022-11-25T05:06:16.056Z,98311.81
2022-11-25T05:07:18.778Z,98311.59
2022-11-25T05:08:23.503Z,98312.88
2022-11-25T05:09:24.949Z,98311.31
2022-11-25T05:10:37.245Z,98317.88
2022-11-25T05:11:38.676Z,98319.69
2022-11-25T05:12:40.400Z,98324.69
2022-11-25T05:13:45.779Z,98324.94
2022-11-25T05:14:47.189Z,98328.63
2022-11-25T05:15:48.577Z,98318.66
2022-11-25T05:16:51.520Z,98319.69
2022-11-25T05:17:53.040Z,98326.53
2022-11-25T05:19:07.199Z,98323.38
2022-11-25T05:20:08.898Z,98328.38
2022-11-25T05:21:10.237Z,98310.25
2022-11-25T05:22:16.722Z,98318.66
2022-11-25T05:23:19.283Z,98311.59
2022-11-25T05:24:20.922Z,98304.50
2022-11-25T05:25:25.146Z,98315.25
2022-11-25T05:26:44.974Z,98311.56
2022-11-25T05:27:46.470Z,98315.50
2022-11-25T05:28:48.907Z,98310.78
2022-11-25T05:29:55.741Z,98307.38
2022-11-25T05:30:58.851Z,98308.41
2022-11-25T05:32:00.305Z,98315.50
2022-11-25T05:33:01.804Z,98319.44
2022-11-25T05:34:03.356Z,98324.16
2022-11-25T05:35:05.456Z,98324.16
2022-11-25T05:36:06.962Z,98333.06
2022-11-25T05:37:24.357Z,98329.94
2022-11-25T05:38:31.794Z,98322.84
2022-11-25T05:39:33.717Z,98327.56
2022-11-25T05:41:02.059Z,98330.44
2022-11-25T05:42:04.217Z,98329.41
2022-11-25T05:43:05.765Z,98332.56
2022-11-25T05:44:09.949Z,98336.19
2022-11-25T05:45:12.805Z,98335.44
2022-11-25T05:46:15.246Z,98340.44
2022-11-25T05:47:26.663Z,98343.06
2022-11-25T05:48:28.516Z,98347.25
2022-11-25T05:49:29.900Z,98346.69
2022-11-25T05:50:32.262Z,98346.44
2022-11-25T05:51:50.039Z,98353.25
2022-11-25T05:52:53.742Z,98351.94
2022-11-25T05:53:55.896Z,98343.03
2022-11-25T05:55:01.974Z,98346.16
2022-11-25T05:56:05.155Z,98349.06
2022-11-25T05:57:25.037Z,98349.84
2022-11-25T05:58:31.170Z,98349.06
2022-11-25T05:59:34.671Z,98351.41
2022-11-25T06:00:43.669Z,98352.72
2022-11-25T06:01:45.532Z,98356.66
2022-11-25T06:02:50.492Z,98366.88
2022-11-25T06:03:52.673Z,98356.91
2022-11-25T06:04:54.201Z,98364.25
2022-11-25T06:05:56.152Z,98363.19
2022-11-25T06:06:57.576Z,98367.63
2022-11-25T06:07:59.057Z,98379.94
2022-11-25T06:09:01.595Z,98367.13
2022-11-25T06:10:04.457Z,98371.81
2022-11-25T06:11:11.103Z,98372.34
2022-11-25T06:12:12.910Z,98374.69
2022-11-25T06:13:21.689Z,98375.47
2022-11-25T06:14:23.035Z,98371.56
2022-11-25T06:15:25.406Z,98374.19
2022-11-25T06:16:29.438Z,98373.63
2022-11-25T06:17:41.829Z,98367.09
2022-11-25T06:18:49.142Z,98369.97
2022-11-25T06:19:50.660Z,98366.03
2022-11-25T06:20:56.264Z,98373.63
2022-11-25T06:21:57.686Z,98356.59
2022-11-25T06:23:00.601Z,98364.47
2022-11-25T06:24:07.225Z,98365.75
2022-11-25T06:25:12.180Z,98361.84
2022-11-25T06:26:19.165Z,98369.41
2022-11-25T06:27:20.611Z,98362.34
2022-11-25T06:28:23.206Z,98368.09
2022-11-25T06:29:25.614Z,98361.06
2022-11-25T06:30:27.023Z,98364.97
2022-11-25T06:31:54.692Z,98367.31
2022-11-25T06:33:11.225Z,98378.84
2022-11-25T06:34:12.658Z,98377.28
2022-11-25T06:35:15.240Z,98376.22
2022-11-25T06:36:25.387Z,98375.97
2022-11-25T06:37:26.784Z,98373.09
2022-11-25T06:38:28.244Z,98376.81
2022-11-25T06:39:29.662Z,98376.25
2022-11-25T06:40:31.026Z,98374.44
2022-11-25T06:41:32.393Z,98379.69
2022-11-25T06:42:33.887Z,98381.28
2022-11-25T06:43:35.285Z,98378.38
2022-11-25T06:44:36.875Z,98374.69
2022-11-25T06:45:38.409Z,98379.41
2022-11-25T06:46:39.994Z,98380.72
2022-11-25T06:47:41.643Z,98377.56
2022-11-25T06:48:43.045Z,98374.16
2022-11-25T06:49:44.478Z,98373.88
2022-11-25T06:50:45.883Z,98376.78
2022-11-25T06:51:49.141Z,98376.22
2022-11-25T06:52:50.501Z,98379.09
2022-11-25T06:53:52.147Z,98377.53
2022-11-25T06:54:53.575Z,98387.50
2022-11-25T06:56:05.805Z,98387.75
2022-11-25T06:57:07.969Z,98394.03
2022-11-25T06:58:34.333Z,98394.03
2022-11-25T06:59:32.021Z,98398.50
2022-11-25T07:00:33.440Z,98395.34
2022-11-25T07:01:35.069Z,98391.16
2022-11-25T07:02:42.923Z,98402.16
2022-11-25T07:03:47.804Z,98411.06
2022-11-25T07:04:49.158Z,98404.25
2022-11-25T07:05:50.544Z,98403.22
2022-11-25T07:06:51.897Z,98405.03
2022-11-25T07:07:53.309Z,98404.78
2022-11-25T07:08:55.080Z,98407.19
2022-11-25T07:09:56.457Z,98411.38
2022-11-25T07:11:05.595Z,98405.09
2022-11-25T07:12:07.109Z,98403.53
2022-11-25T07:13:08.480Z,98398.56
2022-11-25T07:14:11.531Z,98391.50
2022-11-25T07:15:12.992Z,98391.22
2022-11-25T07:16:14.778Z,98387.84
2022-11-25T07:17:16.218Z,98384.44
2022-11-25T07:18:17.562Z,98388.63
2022-11-25T07:19:19.191Z,98388.63
2022-11-25T07:20:20.577Z,98388.41
2022-11-25T07:21:23.067Z,98394.41
2022-11-25T07:22:24.488Z,98394.94
2022-11-25T07:23:25.842Z,98405.41
2022-11-25T07:24:27.163Z,98397.81
2022-11-25T07:25:30.780Z,98398.88
2022-11-25T07:26:34.027Z,98406.75
2022-11-25T07:27:35.417Z,98411.22
2022-11-25T07:28:37.357Z,98409.38
2022-11-25T07:31:32.388Z,98408.34
2022-11-25T07:32:34.835Z,98409.13
2022-11-25T07:33:36.309Z,98405.47
2022-11-25T07:34:38.176Z,98408.88
2022-11-25T07:35:39.580Z,98417.28
2022-11-25T07:36:41.320Z,98418.59
2022-11-25T07:37:42.680Z,98418.59
2022-11-25T07:38:46.731Z,98423.03
2022-11-25T07:39:48.478Z,98429.06
2022-11-25T07:40:49.866Z,98432.25
2022-11-25T07:41:52.169Z,98430.41
2022-11-25T07:42:54.294Z,98431.72
2022-11-25T07:43:57.903Z,98437.00
2022-11-25T07:44:59.764Z,98440.63
2022-11-25T07:46:27.018Z,98438.03
2022-11-25T07:47:28.933Z,98434.09
2022-11-25T07:48:30.296Z,98436.22
2022-11-25T07:49:31.710Z,98438.84
2022-11-25T07:50:33.170Z,98434.88
2022-11-25T07:51:36.554Z,98439.88
2022-11-25T07:52:38.921Z,98434.09
2022-11-25T07:53:40.243Z,98440.91
2022-11-25T07:54:41.814Z,98437.50
2022-11-25T07:55:43.198Z,98438.28
2022-11-25T07:56:44.821Z,98436.72
2022-11-25T07:57:46.262Z,98436.72
2022-11-25T07:58:48.147Z,98440.41
2022-11-25T07:59:49.576Z,98443.81
2022-11-25T08:00:51.008Z,98441.69
2022-11-25T08:01:53.283Z,98447.22
2022-11-25T08:02:55.184Z,98448.78
2022-11-25T08:03:56.881Z,98451.69
2022-11-25T08:04:58.242Z,98460.34
2022-11-25T08:06:00.293Z,98453.53
2022-11-25T08:07:01.648Z,98458.50
2022-11-25T08:08:03.234Z,98456.16
2022-11-25T08:09:05.148Z,98461.41
2022-11-25T08:10:06.841Z,98470.59
2022-11-25T08:11:09.865Z,98464.31
2022-11-25T08:12:11.287Z,98472.97
2022-11-25T08:13:12.679Z,98471.91
2022-11-25T08:14:14.573Z,98474.53
2022-11-25T08:15:16.071Z,98476.88
2022-11-25T08:16:18.888Z,98477.44
2022-11-25T08:17:20.265Z,98478.47
2022-11-25T08:18:21.708Z,98482.94
2022-11-25T08:19:27.088Z,98475.56
2022-11-25T08:20:31.420Z,98472.69
2022-11-25T08:21:32.960Z,98475.06
2022-11-25T08:22:34.382Z,98465.34
2022-11-25T08:23:36.902Z,98462.94
2022-11-25T08:24:38.290Z,98466.91
2022-11-25T08:25:47.465Z,98462.97
2022-11-25T08:26:51.513Z,98457.72
2022-11-25T08:27:52.861Z,98454.81
2022-11-25T08:28:54.762Z,98454.53
2022-11-25T08:29:56.331Z,98447.44
2022-11-25T08:31:04.675Z,98441.94
2022-11-25T08:32:11.460Z,98446.13
2022-11-25T08:33:13.229Z,98431.66
2022-11-25T08:34:18.867Z,98437.97
2022-11-25T08:35:20.914Z,98432.19
2022-11-25T08:36:25.086Z,98441.91
2022-11-25T08:37:26.485Z,98438.22
2022-11-25T08:38:28.553Z,98437.94
2022-11-25T08:39:51.049Z,98439.28
2022-11-25T08:40:51.422Z,98437.94
2022-11-25T08:41:52.815Z,98446.34
2022-11-25T08:42:54.433Z,98441.59
2022-11-25T08:43:56.783Z,98451.84
2022-11-25T08:44:58.225Z,98445.56
2022-11-25T08:45:59.818Z,98452.09
2022-11-25T08:47:01.358Z,98454.22
2022-11-25T08:48:02.869Z,98458.13
2022-11-25T08:49:04.844Z,98453.66
2022-11-25T08:50:08.071Z,98456.81
2022-11-25T08:51:12.080Z,98452.63
2022-11-25T08:52:13.405Z,98458.91
2022-11-25T08:53:15.166Z,98458.66
2022-11-25T08:54:16.612Z,98460.22
2022-11-25T08:55:17.969Z,98466.78
2022-11-25T08:56:25.715Z,98472.03
2022-11-25T08:57:27.512Z,98476.50
2022-11-25T08:58:28.923Z,98472.84
2022-11-25T08:59:30.378Z,98473.34
2022-11-25T09:00:31.798Z,98468.59
2022-11-25T09:01:33.239Z,98470.72
2022-11-25T09:02:34.805Z,98477.56
2022-11-25T09:03:37.465Z,98480.97
2022-11-25T09:04:38.877Z,98476.50
2022-11-25T09:05:41.369Z,98481.50
2022-11-25T09:06:42.835Z,98477.03
2022-11-25T09:07:44.389Z,98486.22
2022-11-25T09:08:46.511Z,98486.97
2022-11-25T09:09:47.908Z,98477.78
2022-11-25T09:10:49.279Z,98482.22
2022-11-25T09:11:50.714Z,98480.38
2022-11-25T09:12:52.105Z,98480.88
2022-11-25T09:13:53.508Z,98483.22
2022-11-25T09:14:54.995Z,98475.78
2022-11-25T09:15:56.927Z,98479.69
2022-11-25T09:16:58.349Z,98483.59
2022-11-25T09:18:00.512Z,98476.94
2022-11-25T09:19:01.941Z,98477.69
2022-11-25T09:20:04.777Z,98473.97
2022-11-25T09:21:10.256Z,98475.47
2022-11-25T09:22:11.735Z,98484.06
2022-11-25T09:23:13.494Z,98487.41
2022-11-25T09:24:14.878Z,98491.03
2022-11-25T09:25:16.265Z,98494.16
2022-11-25T09:26:19.840Z,98496.47
2022-11-25T09:27:21.231Z,98494.28
2022-11-25T09:28:23.420Z,98498.16
2022-11-25T09:29:24.756Z,98492.56
2022-11-25T09:30:26.202Z,98490.13
2022-11-25T09:31:27.920Z,98495.56
2022-11-25T09:32:29.429Z,98486.81
2022-11-25T09:33:30.857Z,98494.69
2022-11-25T09:34:32.270Z,98493.06
2022-11-25T09:35:33.575Z,98495.63
2022-11-25T09:36:35.158Z,98496.91
2022-11-25T09:37:36.628Z,98496.38
2022-11-25T09:38:42.968Z,98496.38
2022-11-25T09:39:44.732Z,98491.31
2022-11-25T09:40:54.735Z,98494.75
2022-11-25T09:42:02.034Z,98499.25
2022-11-25T09:43:09.286Z,98493.66
2022-11-25T09:44:22.325Z,98501.59
2022-11-25T09:45:34.743Z,98498.16
2022-11-25T09:46:41.964Z,98501.09
2022-11-25T09:48:01.820Z,98499.50
2022-11-25T09:49:18.618Z,98499.56
2022-11-25T09:50:20.085Z,98495.34
2022-11-25T09:51:34.252Z,98495.34
2022-11-25T09:52:42.986Z,98495.34
2022-11-25T09:53:51.354Z,98488.22
2022-11-25T09:54:52.692Z,98494.50
2022-11-25T09:56:01.216Z,98497.09
2022-11-25T09:57:25.152Z,98495.47
2022-11-25T09:58:37.776Z,98494.91
2022-11-25T09:59:42.683Z,98488.78
2022-11-25T10:00:45.066Z,98494.28
2022-11-25T10:01:50.514Z,98496.66
2022-11-25T10:02:54.979Z,98489.47
2022-11-25T10:04:01.482Z,98487.81
2022-11-25T10:05:26.188Z,98497.53
2022-11-25T10:06:41.300Z,98494.28
2022-11-25T10:07:44.390Z,98492.63
2022-11-25T10:09:08.937Z,98497.06
2022-11-25T10:10:18.092Z,98498.00
2022-11-25T10:11:44.367Z,98495.56
2022-11-25T10:12:48.115Z,98494.69
2022-11-25T10:13:54.725Z,98498.66
2022-11-25T10:15:00.680Z,98496.72
2022-11-25T10:16:04.630Z,98496.94
2022-11-25T10:17:31.004Z,98494.50
2022-11-25T10:18:38.174Z,98503.16
2022-11-25T10:19:39.577Z,98500.69
2022-11-25T10:20:42.204Z,98501.50
2022-11-25T10:21:43.698Z,98507.75
2022-11-25T10:22:46.762Z,98506.13
2022-11-25T10:23:48.226Z,98513.47
2022-11-25T10:24:51.114Z,98507.34
2022-11-25T10:25:55.945Z,98506.47
2022-11-25T10:26:59.013Z,98504.91
2022-11-25T10:28:01.894Z,98510.38
2022-11-25T10:29:17.538Z,98512.25
2022-11-25T10:30:18.963Z,98510.69
2022-11-25T10:31:24.422Z,98510.19
2022-11-25T10:32:27.894Z,98500.66
2022-11-25T10:33:33.899Z,98502.06
2022-11-25T10:34:37.983Z,98503.41
2022-11-25T10:35:41.136Z,98505.78
2022-11-25T10:36:44.064Z,98505.25
2022-11-25T10:37:45.686Z,98502.31
2022-11-25T10:39:05.460Z,98506.25
2022-11-25T10:40:07.274Z,98507.34
2022-11-25T10:41:11.731Z,98508.97
2022-11-25T10:42:20.538Z,98510.84
2022-11-25T10:43:24.107Z,98515.13
2022-11-25T10:44:30.063Z,98515.13
2022-11-25T10:45:38.485Z,98508.28
2022-11-25T10:47:11.844Z,98523.63
2022-11-25T10:48:07.246Z,98520.47
2022-11-25T10:49:14.854Z,98513.34
2022-11-25T10:50:34.862Z,98518.91
2022-11-25T10:51:37.739Z,98520.00
2022-11-25T10:53:17.669Z,98518.91
2022-11-25T10:54:25.609Z,98527.63
2022-11-25T10:55:33.228Z,98525.78
2022-11-25T10:56:42.790Z,98528.19
2022-11-25T10:57:45.644Z,98527.13
2022-11-25T10:58:47.099Z,98526.56
2022-11-25T10:59:55.376Z,98532.06
2022-11-25T11:01:15.204Z,98529.91
2022-11-25T11:02:16.696Z,98536.19
2022-11-25T11:03:26.814Z,98534.31
2022-11-25T11:04:28.231Z,98533.47
2022-11-25T11:05:30.648Z,98535.53
2022-11-25T11:06:31.992Z,98536.53
2022-11-25T11:07:34.610Z,98541.75
2022-11-25T11:08:39.780Z,98539.59
2022-11-25T11:09:41.166Z,98548.22
2022-11-25T11:10:42.854Z,98552.16
2022-11-25T11:11:48.178Z,98546.56
2022-11-25T11:12:55.605Z,98550.22
2022-11-25T11:14:13.579Z,98548.38
2022-11-25T11:15:18.582Z,98557.38
2022-11-25T11:16:34.116Z,98556.00
2022-11-25T11:17:38.286Z,98553.66
2022-11-25T11:18:41.002Z,98555.59
2022-11-25T11:19:42.468Z,98559.09
2022-11-25T11:20:48.170Z,98570.16
2022-11-25T11:21:50.324Z,98562.69
2022-11-25T11:22:55.431Z,98571.69
2022-11-25T11:23:57.028Z,98564.81
2022-11-25T11:25:16.373Z,98564.09
2022-11-25T11:26:35.868Z,98567.41
2022-11-25T11:27:37.959Z,98576.19
2022-11-25T11:28:40.293Z,98572.75
2022-11-25T11:29:41.696Z,98572.47
2022-11-25T11:30:53.373Z,98585.16
2022-11-25T11:31:59.388Z,98576.81
2022-11-25T11:33:03.339Z,98578.16
2022-11-25T11:34:20.109Z,98581.88
2022-11-25T11:35:42.006Z,98582.16
2022-11-25T11:36:55.949Z,98580.88
2022-11-25T11:38:01.185Z,98580.09
2022-11-25T11:39:20.704Z,98580.59
2022-11-25T11:40:44.215Z,98589.88
2022-11-25T11:41:52.449Z,98586.16
2022-11-25T11:43:05.794Z,98581.22
2022-11-25T11:44:07.191Z,98587.28
2022-11-25T11:45:23.853Z,98586.22
2022-11-25T11:46:50.358Z,98584.38
2022-11-25T11:48:10.062Z,98584.66
2022-11-25T11:49:30.867Z,98581.75
2022-11-25T11:50:35.905Z,98588.00
2022-11-25T11:51:51.406Z,98589.31
2022-11-25T11:53:11.770Z,98590.09
2022-11-25T11:54:17.525Z,98582.53
2022-11-25T11:55:39.157Z,98587.03
2022-11-25T11:56:54.839Z,98589.88
2022-11-25T11:58:06.067Z,98592.44
2022-11-25T11:59:08.055Z,98588.78
2022-11-25T12:00:11.464Z,98590.38
2022-11-25T12:01:35.363Z,98592.25
2022-11-25T12:03:00.433Z,98591.97
2022-11-25T12:04:07.847Z,98590.38
2022-11-25T12:05:15.200Z,98587.53
2022-11-25T12:06:16.693Z,98591.00
2022-11-25T12:07:33.281Z,98590.53
2022-11-25T12:08:37.655Z,98593.66
2022-11-25T12:09:45.967Z,98596.00
2022-11-25T12:10:50.329Z,98599.94
2022-11-25T12:11:54.479Z,98602.59
2022-11-25T12:13:20.163Z,98600.97
2022-11-25T12:14:32.059Z,98601.22
2022-11-25T12:15:36.352Z,98604.16
2022-11-25T12:16:46.059Z,98600.25
2022-11-25T12:17:52.248Z,98600.25
2022-11-25T12:19:05.719Z,98606.31
2022-11-25T12:20:15.234Z,98600.44
2022-11-25T12:21:28.748Z,98601.03
2022-11-25T12:22:33.876Z,98596.53
2022-11-25T12:23:50.672Z,98600.25
2022-11-25T12:24:54.993Z,98607.09
2022-11-25T12:25:58.674Z,98603.16
2022-11-25T12:27:05.505Z,98606.31
2022-11-25T12:28:17.484Z,98609.72
2022-11-25T12:29:34.087Z,98606.31
2022-11-25T12:30:41.796Z,98608.16
2022-11-25T12:31:45.939Z,98612.38
2022-11-25T12:32:59.955Z,98607.56
2022-11-25T12:34:01.406Z,98611.00
2022-11-25T12:35:06.298Z,98613.94
2022-11-25T12:36:07.618Z,98607.88
2022-11-25T12:37:15.153Z,98616.09
2022-11-25T12:38:35.466Z,98615.56